Time;durP1;ratioP1;P1;durP2;ratioP2;P2;SDS_P1;SDS_P2;PMS_P1;PMS_P2;Temp;Humidity;BMP_temperature;BMP_pressure;BME280_temperature;BME280_humidity;BME280_pressure;Samples;Min_cycle;Max_cycle;Signal;HPM_P1;HPM_P2
2022/07/23 00:01:28;;;;;;;5.75;4.05;;;14.20;99.90;;;;;;5040455;28;20081;-84
2022/07/23 00:03:55;;;;;;;9.02;5.25;;;14.10;99.90;;;;;;4994069;28;20128;-84
2022/07/23 00:06:22;;;;;;;5.30;4.35;;;14.10;99.90;;;;;;5004314;28;20077;-84
2022/07/23 00:08:51;;;;;;;6.40;4.57;;;14.10;99.90;;;;;;4995476;28;20552;-84
2022/07/23 00:11:17;;;;;;;6.40;3.28;;;14.10;99.90;;;;;;5004510;28;20061;-84
2022/07/23 00:13:43;;;;;;;5.72;3.90;;;14.00;99.90;;;;;;5016747;28;20052;-84
2022/07/23 00:16:09;;;;;;;5.20;4.43;;;14.10;99.90;;;;;;5001927;28;20412;-84
2022/07/23 00:18:35;;;;;;;5.18;3.97;;;14.00;99.90;;;;;;5005808;28;20048;-84
2022/07/23 00:21:00;;;;;;;5.35;3.40;;;14.00;99.90;;;;;;5009750;28;20480;-83
2022/07/23 00:23:28;;;;;;;5.93;3.92;;;14.00;99.90;;;;;;4977844;28;20045;-84
2022/07/23 00:25:54;;;;;;;5.43;3.95;;;14.00;99.90;;;;;;5004575;28;20049;-85
2022/07/23 00:28:20;;;;;;;6.40;4.43;;;13.90;99.90;;;;;;4991629;28;20041;-78
2022/07/23 00:30:46;;;;;;;4.85;4.22;;;13.90;99.90;;;;;;5004537;28;20485;-78
2022/07/23 00:33:11;;;;;;;5.43;4.22;;;13.80;99.90;;;;;;4997821;28;20056;-78
2022/07/23 00:35:42;;;;;;;6.47;4.13;;;13.80;99.90;;;;;;4998337;28;20458;-78
2022/07/23 00:38:09;;;;;;;5.43;4.07;;;13.80;99.90;;;;;;5002849;28;20052;-78
2022/07/23 00:40:36;;;;;;;5.07;3.83;;;13.70;99.90;;;;;;4993746;28;20038;-78
2022/07/23 00:43:03;;;;;;;7.22;5.18;;;13.70;99.90;;;;;;5014899;28;20544;-78
2022/07/23 00:45:29;;;;;;;8.32;5.82;;;13.60;99.90;;;;;;4997512;28;20037;-78
2022/07/23 00:47:54;;;;;;;9.27;5.30;;;13.60;99.90;;;;;;5011772;28;20047;-78
2022/07/23 00:50:20;;;;;;;10.02;6.55;;;13.50;99.90;;;;;;5010440;28;20602;-79
2022/07/23 00:52:46;;;;;;;6.55;4.90;;;13.50;99.90;;;;;;4996103;28;20065;-78
2022/07/23 00:55:12;;;;;;;7.68;6.22;;;13.40;99.90;;;;;;4992864;28;20065;-78
2022/07/23 00:57:39;;;;;;;9.40;6.20;;;13.40;99.90;;;;;;5006707;28;20765;-78
2022/07/23 01:00:07;;;;;;;9.93;6.20;;;13.40;99.90;;;;;;4993246;28;20539;-78
2022/07/23 01:02:36;;;;;;;7.65;5.53;;;13.30;99.90;;;;;;5014174;28;20054;-78
2022/07/23 01:05:02;;;;;;;7.38;5.07;;;13.30;99.90;;;;;;5016911;28;20149;-78
2022/07/23 01:07:30;;;;;;;9.18;6.65;;;13.20;99.90;;;;;;5004310;28;20504;-78
2022/07/23 01:09:56;;;;;;;9.45;6.53;;;13.20;99.90;;;;;;5003271;28;20046;-78
2022/07/23 01:12:25;;;;;;;13.00;6.47;;;13.20;99.90;;;;;;5002136;28;20233;-79
2022/07/23 01:14:58;;;;;;;20.85;8.18;;;13.10;99.90;;;;;;5021688;28;20049;-78
2022/07/23 01:17:25;;;;;;;13.88;6.85;;;13.00;99.90;;;;;;5003464;28;20045;-78
2022/07/23 01:19:50;;;;;;;9.45;7.32;;;13.00;99.90;;;;;;5017651;28;20045;-85
2022/07/23 01:22:19;;;;;;;8.70;6.45;;;13.00;99.90;;;;;;4994095;28;20211;-78
2022/07/23 01:24:45;;;;;;;7.20;5.78;;;13.00;99.90;;;;;;4982355;28;20056;-78
2022/07/23 01:27:12;;;;;;;9.07;5.68;;;12.90;99.90;;;;;;4997388;28;20092;-79
2022/07/23 01:29:38;;;;;;;11.77;7.78;;;12.90;99.90;;;;;;5011605;28;20045;-78
2022/07/23 01:32:05;;;;;;;7.97;6.25;;;12.90;99.90;;;;;;4995727;28;20107;-78
2022/07/23 01:34:31;;;;;;;12.20;7.95;;;12.90;99.90;;;;;;4994429;28;20053;-78
2022/07/23 01:36:57;;;;;;;5.18;4.57;;;12.90;99.90;;;;;;5004715;28;20515;-78
2022/07/23 01:39:23;;;;;;;6.78;5.78;;;12.80;99.90;;;;;;4989661;28;20046;-78
2022/07/23 01:41:49;;;;;;;7.15;5.05;;;12.80;99.90;;;;;;5000120;28;20049;-78
2022/07/23 01:44:15;;;;;;;6.00;4.60;;;12.80;99.90;;;;;;4999289;28;20050;-78
2022/07/23 01:46:41;;;;;;;6.85;5.03;;;12.80;99.90;;;;;;4980701;28;20044;-78
2022/07/23 01:49:06;;;;;;;6.97;4.95;;;12.80;99.90;;;;;;4984386;28;20045;-78
2022/07/23 01:51:32;;;;;;;9.95;5.57;;;12.80;99.90;;;;;;5014326;28;20041;-86
2022/07/23 01:53:58;;;;;;;6.45;5.18;;;12.70;99.90;;;;;;5014006;28;20049;-78
2022/07/23 01:56:24;;;;;;;6.90;5.18;;;12.70;99.90;;;;;;4997143;28;20041;-78
2022/07/23 01:58:49;;;;;;;5.78;5.18;;;12.70;99.90;;;;;;4999805;28;20084;-78
2022/07/23 02:01:15;;;;;;;7.20;5.05;;;12.70;99.90;;;;;;5032973;28;20045;-78
2022/07/23 02:03:41;;;;;;;6.13;5.38;;;12.70;99.90;;;;;;5021521;28;20120;-78
2022/07/23 02:06:07;;;;;;;6.07;4.85;;;12.70;99.90;;;;;;4986985;28;20037;-78
2022/07/23 02:08:33;;;;;;;5.47;4.60;;;12.70;99.90;;;;;;5019979;28;20045;-79
2022/07/23 02:10:58;;;;;;;4.85;4.20;;;12.70;99.90;;;;;;4994337;28;20053;-78
2022/07/23 02:13:25;;;;;;;5.70;4.40;;;12.60;99.90;;;;;;5003373;28;20125;-79
2022/07/23 02:15:50;;;;;;;7.43;6.28;;;12.60;99.90;;;;;;5003592;28;20761;-79
2022/07/23 02:18:16;;;;;;;8.38;5.35;;;12.60;99.90;;;;;;4986416;28;20045;-78
2022/07/23 02:20:44;;;;;;;7.05;5.65;;;12.50;99.90;;;;;;5003819;28;20038;-78
2022/07/23 02:23:13;;;;;;;5.78;4.72;;;12.50;99.90;;;;;;4998217;28;20478;-78
2022/07/23 02:25:39;;;;;;;7.80;5.43;;;12.40;99.90;;;;;;5000766;28;20046;-78
2022/07/23 02:28:05;;;;;;;10.13;7.35;;;12.40;99.90;;;;;;5020619;28;20049;-87
2022/07/23 02:30:31;;;;;;;17.50;9.45;;;12.30;99.90;;;;;;5021926;28;20049;-87
2022/07/23 02:32:57;;;;;;;11.20;6.82;;;12.30;99.90;;;;;;5000195;28;20042;-78
2022/07/23 02:35:25;;;;;;;9.32;6.47;;;12.30;99.90;;;;;;4997287;28;20038;-78
2022/07/23 02:37:54;;;;;;;7.03;4.93;;;12.20;99.90;;;;;;5014539;28;20603;-78
2022/07/23 02:40:20;;;;;;;7.97;5.82;;;12.20;99.90;;;;;;5009453;28;20057;-79
2022/07/23 02:42:46;;;;;;;5.05;4.38;;;12.20;99.90;;;;;;4998534;28;20037;-79
2022/07/23 02:45:12;;;;;;;7.32;5.05;;;12.20;99.90;;;;;;5003994;28;20069;-78
2022/07/23 02:47:38;;;;;;;8.77;6.43;;;12.10;99.90;;;;;;4999225;28;20400;-78
2022/07/23 02:50:05;;;;;;;11.43;5.57;;;12.10;99.90;;;;;;4981002;28;20065;-78
2022/07/23 02:52:31;;;;;;;14.05;6.75;;;12.10;99.90;;;;;;4999127;28;20107;-79
2022/07/23 02:54:56;;;;;;;6.13;4.22;;;12.00;99.90;;;;;;4992891;28;20062;-78
2022/07/23 02:57:25;;;;;;;5.40;4.53;;;11.90;99.90;;;;;;4979547;28;20056;-78
2022/07/23 02:59:51;;;;;;;5.93;5.22;;;12.00;99.90;;;;;;4982611;28;20046;-79
2022/07/23 03:02:17;;;;;;;8.25;6.10;;;12.00;99.90;;;;;;5015303;28;20055;-78
2022/07/23 03:04:43;;;;;;;5.38;4.32;;;12.00;99.90;;;;;;4989050;28;20212;-78
2022/07/23 03:07:09;;;;;;;5.03;3.78;;;11.90;99.90;;;;;;4995899;28;20619;-78
2022/07/23 03:09:34;;;;;;;10.75;5.55;;;11.90;99.90;;;;;;4999912;28;20042;-79
2022/07/23 03:12:00;;;;;;;11.02;5.88;;;11.90;99.90;;;;;;5014508;28;20117;-78
2022/07/23 03:14:27;;;;;;;10.23;5.38;;;11.90;99.90;;;;;;5005583;28;20091;-79
2022/07/23 03:16:56;;;;;;;12.02;6.85;;;11.90;99.90;;;;;;4995182;28;20643;-79
2022/07/23 03:19:21;;;;;;;14.27;6.38;;;11.80;99.90;;;;;;4995669;28;20144;-79
2022/07/23 03:21:47;;;;;;;8.27;6.00;;;11.70;99.90;;;;;;5003012;28;20575;-78
2022/07/23 03:24:13;;;;;;;5.95;4.05;;;11.70;99.90;;;;;;4976675;28;20140;-79
2022/07/23 03:26:39;;;;;;;5.22;3.40;;;11.70;99.90;;;;;;5009062;28;20489;-79
2022/07/23 03:29:05;;;;;;;4.13;3.15;;;11.70;99.90;;;;;;4982104;28;20124;-79
2022/07/23 03:31:34;;;;;;;6.20;2.85;;;11.60;99.90;;;;;;5000098;28;20052;-78
2022/07/23 03:34:00;;;;;;;6.13;3.65;;;11.70;99.90;;;;;;4996392;28;20065;-78
2022/07/23 03:36:26;;;;;;;4.22;3.03;;;11.70;99.90;;;;;;4988266;28;20101;-78
2022/07/23 03:38:56;;;;;;;4.15;3.10;;;11.70;99.90;;;;;;5009899;28;20500;-79
2022/07/23 03:41:21;;;;;;;4.18;3.25;;;11.80;99.90;;;;;;5004507;28;20072;-87
2022/07/23 03:43:47;;;;;;;4.00;2.92;;;11.70;99.90;;;;;;4998664;28;20544;-79
2022/07/23 03:46:13;;;;;;;6.05;4.20;;;11.70;99.90;;;;;;5012109;28;20431;-79
2022/07/23 03:48:39;;;;;;;5.75;3.88;;;11.70;99.90;;;;;;5014182;28;20435;-79
2022/07/23 03:51:06;;;;;;;4.97;3.92;;;11.70;99.90;;;;;;4994146;28;20129;-79
2022/07/23 03:53:31;;;;;;;6.57;4.65;;;11.70;99.90;;;;;;4999028;28;20073;-79
2022/07/23 03:55:57;;;;;;;5.15;4.20;;;11.70;99.90;;;;;;4978838;28;20080;-79
2022/07/23 03:58:23;;;;;;;6.43;5.15;;;11.70;99.90;;;;;;4986402;28;20088;-78
2022/07/23 04:00:49;;;;;;;5.30;4.28;;;11.70;99.90;;;;;;4979448;28;20043;-86
2022/07/23 04:03:15;;;;;;;6.55;4.47;;;11.60;99.90;;;;;;5010335;28;20037;-87
2022/07/23 04:05:41;;;;;;;9.45;7.47;;;11.70;99.90;;;;;;5003625;28;20038;-86
2022/07/23 04:08:06;;;;;;;9.23;6.18;;;11.70;99.90;;;;;;5008446;28;20045;-78
2022/07/23 04:10:32;;;;;;;13.32;8.38;;;11.60;99.90;;;;;;5005029;28;20072;-79
2022/07/23 04:12:58;;;;;;;8.13;6.93;;;11.60;99.90;;;;;;5001066;28;20050;-79
2022/07/23 04:15:24;;;;;;;10.15;6.90;;;11.60;99.90;;;;;;4992236;28;20496;-79
2022/07/23 04:17:50;;;;;;;13.93;8.93;;;11.60;99.90;;;;;;5020292;28;20496;-79
2022/07/23 04:20:16;;;;;;;12.60;9.07;;;11.60;99.90;;;;;;5021635;28;20201;-79
2022/07/23 04:22:45;;;;;;;8.20;6.22;;;11.60;99.90;;;;;;5009452;28;20049;-79
2022/07/23 04:25:11;;;;;;;12.55;7.90;;;11.60;99.90;;;;;;4986559;28;20037;-79
2022/07/23 04:27:36;;;;;;;10.68;7.20;;;11.60;99.90;;;;;;5014142;28;20763;-79
2022/07/23 04:30:03;;;;;;;6.38;5.50;;;11.60;99.90;;;;;;5003299;28;20099;-79
2022/07/23 04:32:28;;;;;;;5.20;4.70;;;11.60;99.90;;;;;;5027403;28;20041;-79
2022/07/23 04:34:54;;;;;;;7.22;5.13;;;11.60;99.90;;;;;;4993866;28;20054;-79
2022/07/23 04:37:20;;;;;;;6.25;4.63;;;11.60;99.90;;;;;;5017553;28;20454;-79
2022/07/23 04:39:55;;;;;;;7.32;4.70;;;11.70;99.90;;;;;;4985429;28;20143;-79
2022/07/23 04:42:21;;;;;;;5.97;4.80;;;11.70;99.90;;;;;;5023886;28;20037;-79
2022/07/23 04:44:47;;;;;;;8.52;6.32;;;11.70;99.90;;;;;;5005259;28;20052;-79
2022/07/23 04:47:12;;;;;;;6.97;4.65;;;11.80;99.90;;;;;;5022067;28;20044;-79
2022/07/23 04:49:38;;;;;;;7.30;5.78;;;11.80;99.90;;;;;;5024159;28;20041;-79
2022/07/23 04:52:04;;;;;;;6.65;5.53;;;11.80;99.90;;;;;;5020149;28;20069;-79
2022/07/23 04:54:30;;;;;;;7.40;5.93;;;11.90;99.90;;;;;;4991767;28;20049;-79
2022/07/23 04:56:56;;;;;;;7.93;6.38;;;12.00;99.90;;;;;;5009227;28;20049;-79
2022/07/23 04:59:22;;;;;;;7.47;6.30;;;12.00;99.90;;;;;;4992629;28;20050;-79
2022/07/23 05:01:51;;;;;;;6.95;5.97;;;12.10;99.90;;;;;;4997507;28;20124;-79
2022/07/23 05:04:17;;;;;;;12.48;8.23;;;12.20;99.90;;;;;;5015344;28;20207;-79
2022/07/23 05:06:42;;;;;;;9.07;7.03;;;12.20;99.90;;;;;;5017707;28;20655;-80
2022/07/23 05:09:08;;;;;;;11.05;7.25;;;12.30;99.90;;;;;;4992283;28;20072;-79
2022/07/23 05:11:34;;;;;;;8.75;6.93;;;12.30;99.90;;;;;;5006898;28;20037;-79
2022/07/23 05:14:00;;;;;;;9.23;6.47;;;12.40;99.90;;;;;;5009963;28;20761;-79
2022/07/23 05:16:25;;;;;;;11.55;7.22;;;12.40;99.90;;;;;;5003831;28;20133;-79
2022/07/23 05:18:51;;;;;;;9.68;7.03;;;12.50;99.90;;;;;;4998956;28;20103;-79
2022/07/23 05:21:20;;;;;;;13.43;7.85;;;12.50;99.90;;;;;;5002036;28;20089;-79
2022/07/23 05:23:46;;;;;;;14.88;8.40;;;12.60;99.90;;;;;;4979546;28;20061;-80
2022/07/23 05:26:12;;;;;;;16.48;8.77;;;12.70;99.90;;;;;;5002750;28;20063;-79
2022/07/23 05:28:38;;;;;;;11.30;7.63;;;12.80;99.90;;;;;;5004800;28;20513;-79
2022/07/23 05:31:04;;;;;;;12.75;8.00;;;12.80;99.90;;;;;;4984179;28;20484;-79
2022/07/23 05:33:30;;;;;;;10.63;8.30;;;12.90;99.90;;;;;;4983619;28;20082;-80
2022/07/23 05:36:05;;;;;;;9.88;8.25;;;12.90;99.90;;;;;;5018033;28;20067;-79
2022/07/23 05:38:33;;;;;;;11.10;8.25;;;13.00;99.90;;;;;;5008793;28;20048;-79
2022/07/23 05:41:02;;;;;;;10.07;7.70;;;13.00;99.90;;;;;;5013757;28;20046;-79
2022/07/23 05:43:28;;;;;;;11.57;8.63;;;13.10;99.90;;;;;;5016854;28;20046;-80
2022/07/23 05:45:57;;;;;;;11.95;8.50;;;13.20;99.90;;;;;;4997235;28;20048;-79
2022/07/23 05:48:26;;;;;;;9.48;8.48;;;13.30;99.90;;;;;;4999068;28;20054;-80
2022/07/23 05:50:53;;;;;;;12.13;9.48;;;13.40;99.90;;;;;;5005169;28;20061;-80
2022/07/23 05:53:20;;;;;;;8.77;7.30;;;13.40;99.90;;;;;;5002320;28;20042;-79
2022/07/23 05:55:46;;;;;;;14.55;9.55;;;13.50;99.90;;;;;;4984629;28;20067;-80
2022/07/23 05:58:12;;;;;;;14.00;6.93;;;13.60;99.90;;;;;;4985372;28;20526;-80
2022/07/23 06:00:38;;;;;;;12.07;7.47;;;13.70;99.90;;;;;;4982940;28;20046;-80
2022/07/23 06:03:03;;;;;;;8.40;6.30;;;13.80;99.90;;;;;;4998946;28;20345;-80
2022/07/23 06:05:29;;;;;;;8.40;6.28;;;13.80;99.90;;;;;;4997552;28;20381;-79
2022/07/23 06:07:58;;;;;;;7.63;5.53;;;13.90;99.90;;;;;;4994664;28;20041;-79
2022/07/23 06:10:24;;;;;;;8.30;5.35;;;14.00;99.90;;;;;;4999878;28;20057;-79
2022/07/23 06:12:49;;;;;;;9.07;6.47;;;14.00;99.90;;;;;;4998689;28;20496;-80
2022/07/23 06:15:15;;;;;;;8.35;6.38;;;14.10;99.90;;;;;;5012553;28;20037;-80
2022/07/23 06:17:41;;;;;;;5.90;5.30;;;14.20;99.90;;;;;;5019204;28;20029;-80
2022/07/23 06:20:08;;;;;;;8.85;5.68;;;14.30;99.90;;;;;;5013571;28;20441;-80
2022/07/23 06:22:35;;;;;;;9.27;5.90;;;14.40;99.90;;;;;;5014074;28;20029;-80
2022/07/23 06:25:01;;;;;;;7.15;5.07;;;14.50;99.90;;;;;;4991546;28;20046;-81
2022/07/23 06:27:27;;;;;;;7.90;5.25;;;14.60;99.90;;;;;;4982728;28;20041;-80
2022/07/23 06:29:53;;;;;;;8.57;4.78;;;14.60;99.90;;;;;;4995890;28;20049;-80
2022/07/23 06:32:19;;;;;;;6.60;4.82;;;14.70;99.90;;;;;;4982895;28;20122;-80
2022/07/23 06:34:45;;;;;;;6.32;3.90;;;14.80;99.90;;;;;;4986977;28;20045;-87
2022/07/23 06:37:11;;;;;;;6.68;3.20;;;14.90;99.90;;;;;;5008490;28;20097;-79
2022/07/23 06:39:37;;;;;;;7.57;3.15;;;14.90;99.90;;;;;;5012360;28;20077;-79
2022/07/23 06:42:03;;;;;;;6.00;3.28;;;15.00;99.90;;;;;;4996755;28;20045;-80
2022/07/23 06:44:29;;;;;;;4.75;3.00;;;15.10;99.90;;;;;;4986649;28;20272;-79
2022/07/23 06:46:55;;;;;;;3.83;2.15;;;15.20;99.90;;;;;;4999009;28;20038;-79
2022/07/23 06:49:21;;;;;;;4.18;2.10;;;15.30;99.90;;;;;;5009897;28;20163;-79
2022/07/23 06:51:47;;;;;;;5.15;2.20;;;15.40;99.90;;;;;;4995201;28;20485;-79
2022/07/23 06:54:12;;;;;;;4.45;2.15;;;15.50;99.90;;;;;;4996184;28;20143;-79
2022/07/23 06:56:38;;;;;;;4.38;2.03;;;15.60;99.90;;;;;;5002201;28;20124;-80
2022/07/23 06:59:04;;;;;;;6.43;2.38;;;15.80;99.90;;;;;;4983840;28;20042;-80
2022/07/23 07:01:31;;;;;;;3.97;1.95;;;15.90;99.90;;;;;;5013160;28;20064;-80
2022/07/23 07:03:57;;;;;;;3.35;1.70;;;16.10;99.90;;;;;;4982527;28;20808;-80
2022/07/23 07:06:25;;;;;;;4.55;1.85;;;16.20;99.90;;;;;;4997661;28;20489;-80
2022/07/23 07:08:51;;;;;;;4.53;1.58;;;16.40;99.90;;;;;;4979322;28;20041;-80
2022/07/23 07:11:17;;;;;;;3.80;1.70;;;16.50;99.90;;;;;;5008621;28;20056;-80
2022/07/23 07:13:43;;;;;;;4.13;1.90;;;16.60;99.90;;;;;;4988741;28;20046;-80
2022/07/23 07:16:09;;;;;;;4.80;1.65;;;16.80;99.90;;;;;;5027234;28;20365;-81
2022/07/23 07:18:35;;;;;;;3.55;1.83;;;16.90;99.90;;;;;;4980968;28;20111;-80
2022/07/23 07:21:01;;;;;;;2.90;1.48;;;17.00;99.90;;;;;;4999596;28;20052;-81
2022/07/23 07:23:26;;;;;;;2.35;1.40;;;17.10;99.90;;;;;;5005952;28;20561;-80
2022/07/23 07:25:53;;;;;;;4.53;1.90;;;17.20;99.90;;;;;;4996701;28;20393;-81
2022/07/23 07:28:24;;;;;;;6.10;1.65;;;17.30;99.90;;;;;;5007202;28;20038;-82
2022/07/23 07:30:50;;;;;;;2.33;0.90;;;17.50;99.90;;;;;;5006677;28;20038;-81
2022/07/23 07:33:16;;;;;;;4.38;1.30;;;17.60;99.90;;;;;;5006093;28;20102;-80
2022/07/23 07:35:41;;;;;;;2.75;0.90;;;17.70;99.90;;;;;;5003077;28;20285;-81
2022/07/23 07:38:08;;;;;;;3.05;0.77;;;17.90;99.90;;;;;;4998574;28;20099;-80
2022/07/23 07:40:40;;;;;;;1.83;0.80;;;18.00;99.90;;;;;;5012067;28;20050;-80
2022/07/23 07:43:06;;;;;;;1.58;0.70;;;18.10;99.90;;;;;;4986366;28;20069;-80
2022/07/23 07:45:38;;;;;;;2.03;0.73;;;18.10;99.90;;;;;;5014183;28;20060;-81
2022/07/23 07:48:06;;;;;;;1.15;0.60;;;18.00;99.90;;;;;;5000963;28;20037;-80
2022/07/23 07:50:35;;;;;;;2.75;0.70;;;17.80;99.90;;;;;;5020613;28;20047;-80
2022/07/23 07:53:01;;;;;;;1.63;0.63;;;17.70;99.90;;;;;;4991872;28;20049;-84
2022/07/23 07:55:28;;;;;;;1.92;0.60;;;17.80;99.90;;;;;;4984999;28;20052;-80
2022/07/23 07:57:54;;;;;;;1.55;0.50;;;17.80;99.90;;;;;;5001781;28;20048;-80
2022/07/23 08:00:20;;;;;;;3.28;1.17;;;17.80;99.90;;;;;;4994655;28;20488;-81
2022/07/23 08:02:48;;;;;;;1.85;0.55;;;17.80;99.90;;;;;;5011920;28;20515;-82
2022/07/23 08:05:14;;;;;;;3.05;0.70;;;17.80;99.90;;;;;;4978194;28;20096;-80
2022/07/23 08:07:43;;;;;;;2.10;0.57;;;17.90;99.90;;;;;;5014365;28;20041;-79
2022/07/23 08:10:09;;;;;;;3.55;1.00;;;18.10;99.90;;;;;;5005704;28;20050;-80
2022/07/23 08:12:47;;;;;;;1.88;0.60;;;18.30;99.90;;;;;;4981921;28;20053;-81
2022/07/23 08:15:17;;;;;;;1.90;0.60;;;18.40;99.90;;;;;;5009077;28;20302;-80
2022/07/23 08:17:45;;;;;;;3.05;0.70;;;18.50;99.90;;;;;;5005763;28;20045;-80
2022/07/23 08:20:12;;;;;;;1.65;0.75;;;18.60;99.90;;;;;;5012028;28;20397;-80
2022/07/23 08:22:59;;;;;;;1.48;0.75;;;18.50;99.90;;;;;;5023860;28;20061;-80
2022/07/23 08:25:36;;;;;;;1.67;0.60;;;18.40;99.90;;;;;;5007403;28;20512;-81
2022/07/23 08:28:04;;;;;;;2.22;0.60;;;18.40;99.90;;;;;;5013917;28;20493;-80
2022/07/23 08:30:32;;;;;;;3.92;0.75;;;18.40;99.90;;;;;;5008975;28;20056;-80
2022/07/23 08:33:07;;;;;;;1.23;0.55;;;18.70;99.90;;;;;;5013511;28;20493;-80
2022/07/23 08:35:36;;;;;;;3.20;0.50;;;18.80;99.90;;;;;;5015572;28;20103;-81
2022/07/23 08:38:04;;;;;;;3.72;0.50;;;18.90;99.90;;;;;;4998510;28;20817;-80
2022/07/23 08:40:33;;;;;;;1.75;0.70;;;18.90;99.90;;;;;;5014100;28;20045;-80
2022/07/23 08:43:00;;;;;;;1.88;0.80;;;18.80;99.90;;;;;;5012717;28;20050;-80
2022/07/23 08:45:27;;;;;;;1.77;0.70;;;18.70;99.90;;;;;;5002004;28;20400;-80
2022/07/23 08:47:56;;;;;;;1.35;0.60;;;18.60;99.90;;;;;;5003577;28;20478;-80
2022/07/23 08:50:24;;;;;;;1.77;0.60;;;18.60;99.90;;;;;;5020785;28;20045;-81
2022/07/23 08:52:51;;;;;;;2.08;0.40;;;18.70;99.90;;;;;;5022156;28;20077;-80
2022/07/23 08:55:18;;;;;;;1.27;0.60;;;18.90;99.90;;;;;;5013747;28;20562;-80
2022/07/23 08:57:48;;;;;;;2.05;0.50;;;19.20;99.90;;;;;;4984479;28;20396;-80
2022/07/23 09:00:15;;;;;;;3.08;0.73;;;19.30;99.90;;;;;;5000328;28;20057;-80
2022/07/23 09:02:42;;;;;;;0.52;0.47;;;19.40;99.90;;;;;;4997469;28;20041;-80
2022/07/23 09:05:10;;;;;;;1.02;0.38;;;19.40;99.90;;;;;;4983642;28;20049;-80
2022/07/23 09:08:00;;;;;;;1.73;0.60;;;19.30;99.90;;;;;;4996471;28;20087;-81
2022/07/23 09:10:26;;;;;;;1.15;0.50;;;19.30;99.90;;;;;;5002322;28;20067;-80
2022/07/23 09:12:55;;;;;;;2.85;0.77;;;19.30;99.90;;;;;;5034889;28;20788;-79
2022/07/23 09:15:21;;;;;;;1.23;0.60;;;19.30;99.90;;;;;;4998625;28;20459;-80
2022/07/23 09:17:47;;;;;;;1.52;0.40;;;19.30;99.90;;;;;;4979725;28;20038;-82
2022/07/23 09:20:15;;;;;;;1.38;0.57;;;19.40;99.90;;;;;;4979573;28;20437;-80
2022/07/23 09:22:46;;;;;;;1.90;0.80;;;19.50;99.90;;;;;;4993679;28;20037;-79
2022/07/23 09:25:15;;;;;;;2.22;0.63;;;19.40;99.90;;;;;;5007427;28;20042;-81
2022/07/23 09:27:57;;;;;;;2.65;0.73;;;19.40;99.90;;;;;;4997607;28;20050;-80
2022/07/23 09:30:31;;;;;;;1.88;0.57;;;19.50;99.90;;;;;;5013588;28;20269;-80
2022/07/23 09:33:20;;;;;;;1.35;0.70;;;19.60;99.90;;;;;;4992748;28;20089;-79
2022/07/23 09:35:54;;;;;;;1.70;0.60;;;19.80;99.90;;;;;;5016539;28;20481;-83
2022/07/23 09:38:24;;;;;;;1.52;0.63;;;20.00;99.90;;;;;;5014928;28;20160;-83
2022/07/23 09:41:10;;;;;;;2.85;0.57;;;20.30;99.90;;;;;;4996877;28;20471;-83
2022/07/23 09:43:36;;;;;;;2.53;0.60;;;20.40;99.90;;;;;;5013808;28;20052;-79
2022/07/23 09:46:18;;;;;;;2.00;0.60;;;20.40;99.90;;;;;;5011651;28;20054;-79
2022/07/23 09:48:45;;;;;;;2.10;0.73;;;20.50;99.90;;;;;;4996189;28;20040;-79
2022/07/23 09:51:11;;;;;;;10.80;1.30;;;20.40;99.90;;;;;;4976727;28;20077;-79
2022/07/23 09:53:36;;;;;;;1.92;0.70;;;20.30;99.90;;;;;;4983281;28;20501;-79
2022/07/23 09:56:02;;;;;;;1.30;0.77;;;20.30;99.90;;;;;;4980680;28;20488;-80
2022/07/23 09:58:30;;;;;;;1.35;0.80;;;20.40;99.90;;;;;;4996776;28;20056;-79
2022/07/23 10:00:57;;;;;;;1.42;0.60;;;20.50;99.90;;;;;;5011910;28;20038;-79
2022/07/23 10:03:24;;;;;;;2.67;0.60;;;20.50;99.90;;;;;;4994862;28;20136;-80
2022/07/23 10:05:51;;;;;;;1.90;0.70;;;20.60;99.90;;;;;;4984598;28;21274;-79
2022/07/23 10:08:19;;;;;;;2.08;0.55;;;20.80;99.90;;;;;;4996408;28;20973;-80
2022/07/23 10:10:50;;;;;;;3.05;1.10;;;20.90;99.90;;;;;;4983707;28;20037;-79
2022/07/23 10:15:54;;;;;;;1.25;0.70;;;21.10;99.90;;;;;;5003312;28;20080;-79
2022/07/23 10:18:20;;;;;;;3.38;0.95;;;21.00;99.90;;;;;;5019320;28;20038;-79
2022/07/23 10:20:49;;;;;;;1.23;0.50;;;21.00;99.90;;;;;;4995814;28;20038;-79
2022/07/23 10:23:36;;;;;;;2.33;0.88;;;20.90;99.90;;;;;;5001011;28;20148;-79
2022/07/23 10:26:17;;;;;;;2.95;0.90;;;20.80;99.90;;;;;;4987376;28;20055;-80
2022/07/23 10:29:09;;;;;;;3.45;1.25;;;20.80;99.90;;;;;;4998210;28;20041;-79
2022/07/23 10:31:52;;;;;;;2.95;1.27;;;20.80;99.90;;;;;;5005118;28;20042;-79
2022/07/23 10:34:29;;;;;;;1.45;0.80;;;20.90;99.90;;;;;;4991758;28;20050;-79
2022/07/23 10:37:16;;;;;;;1.52;0.90;;;20.90;99.90;;;;;;5003125;28;20088;-79
2022/07/23 10:39:42;;;;;;;2.40;1.17;;;20.80;99.90;;;;;;4998889;28;20049;-79
2022/07/23 10:42:17;;;;;;;2.17;0.90;;;20.90;99.90;;;;;;5001261;28;20144;-79
2022/07/23 10:44:48;;;;;;;4.13;0.90;;;20.90;99.90;;;;;;5010491;28;20049;-79
2022/07/23 10:50:14;;;;;;;1.17;0.80;;;21.00;99.90;;;;;;5012357;28;20397;-79
2022/07/23 10:52:39;;;;;;;2.95;0.93;;;21.00;99.90;;;;;;4979190;28;20046;-79
2022/07/23 10:55:08;;;;;;;1.92;1.00;;;21.10;99.90;;;;;;4983265;28;20050;-79
2022/07/23 10:57:48;;;;;;;2.38;1.20;;;21.10;99.90;;;;;;4999489;28;20485;-79
2022/07/23 11:00:19;;;;;;;3.92;1.13;;;21.00;99.90;;;;;;5008258;28;20061;-84
2022/07/23 11:02:46;;;;;;;2.50;1.00;;;21.00;99.90;;;;;;5009040;28;20050;-84
2022/07/23 11:05:21;;;;;;;4.93;1.00;;;21.10;99.90;;;;;;5012463;28;20050;-83
2022/07/23 11:08:10;;;;;;;3.47;1.42;;;21.00;99.90;;;;;;5012074;28;20132;-83
2022/07/23 11:10:38;;;;;;;2.70;1.10;;;21.00;99.90;;;;;;5013594;28;20076;-83
2022/07/23 11:13:29;;;;;;;2.38;1.10;;;20.90;99.90;;;;;;4990722;28;20050;-83
2022/07/23 11:16:01;;;;;;;2.25;1.23;;;20.90;99.90;;;;;;5003516;28;20041;-84
2022/07/23 11:18:39;;;;;;;2.03;1.13;;;20.90;99.90;;;;;;4998890;28;20046;-79
2022/07/23 11:21:26;;;;;;;5.93;1.42;;;21.10;99.90;;;;;;4995879;28;20485;-78
2022/07/23 11:24:14;;;;;;;3.80;1.42;;;21.30;99.90;;;;;;5017277;28;20049;-79
2022/07/23 11:26:42;;;;;;;3.60;1.40;;;21.60;99.90;;;;;;5017599;28;20038;-79
2022/07/23 11:29:31;;;;;;;2.95;1.40;;;21.90;99.90;;;;;;5000062;28;20038;-79
2022/07/23 11:32:21;;;;;;;2.42;1.20;;;21.90;99.90;;;;;;5014672;28;20038;-79
2022/07/23 11:34:51;;;;;;;2.20;1.30;;;22.10;99.90;;;;;;5011283;28;20137;-79
2022/07/23 11:37:33;;;;;;;2.78;1.20;;;22.40;99.90;;;;;;5002061;28;20037;-80
2022/07/23 11:39:59;;;;;;;2.10;1.38;;;22.40;99.40;;;;;;5020140;28;20045;-79
2022/07/23 11:42:25;;;;;;;2.50;1.30;;;22.30;99.90;;;;;;4979669;28;20314;-79
2022/07/23 11:44:51;;;;;;;4.43;1.73;;;22.10;99.90;;;;;;4992311;28;20084;-83
2022/07/23 11:47:23;;;;;;;1.80;1.30;;;22.00;99.90;;;;;;5006985;28;20411;-83
2022/07/23 11:49:54;;;;;;;3.33;1.55;;;21.90;99.90;;;;;;5004877;28;20054;-79
2022/07/23 11:52:20;;;;;;;3.08;1.48;;;21.90;99.90;;;;;;5014936;28;20067;-79
2022/07/23 11:54:47;;;;;;;4.03;1.63;;;21.90;99.90;;;;;;4984288;28;20524;-79
2022/07/23 11:57:13;;;;;;;3.78;1.80;;;21.90;99.90;;;;;;5008444;28;20176;-79
2022/07/23 11:59:40;;;;;;;3.75;1.80;;;21.80;99.90;;;;;;5004624;28;20057;-80
2022/07/23 12:02:06;;;;;;;2.35;1.30;;;22.00;99.90;;;;;;5010790;28;20056;-79
2022/07/23 12:04:39;;;;;;;4.30;1.45;;;22.00;99.90;;;;;;5022654;28;20373;-79
2022/07/23 12:07:44;;;;;;;2.70;1.40;;;22.00;99.90;;;;;;5020295;28;20047;-79
2022/07/23 12:10:19;;;;;;;2.85;1.42;;;22.10;99.90;;;;;;5011482;28;20084;-79
2022/07/23 12:12:52;;;;;;;3.42;1.40;;;22.00;99.90;;;;;;4978631;28;20045;-79
2022/07/23 12:15:30;;;;;;;2.22;1.10;;;22.10;99.90;;;;;;5005079;28;20114;-79
2022/07/23 12:17:56;;;;;;;3.58;1.45;;;22.20;99.90;;;;;;5021658;28;20042;-79
2022/07/23 12:20:30;;;;;;;3.70;1.25;;;22.40;99.80;;;;;;5003143;28;20053;-79
2022/07/23 12:22:59;;;;;;;3.55;1.58;;;22.60;99.90;;;;;;5010132;28;20096;-78
2022/07/23 12:25:28;;;;;;;4.57;1.60;;;22.60;99.90;;;;;;5020363;28;20495;-79
2022/07/23 12:28:18;;;;;;;3.45;1.88;;;22.60;99.40;;;;;;5000773;28;20554;-78
2022/07/23 12:30:54;;;;;;;2.83;1.65;;;22.50;99.90;;;;;;5002659;28;20045;-79
2022/07/23 12:33:32;;;;;;;3.22;1.70;;;22.50;99.90;;;;;;5000287;28;20050;-78
2022/07/23 12:36:00;;;;;;;4.00;1.70;;;22.70;99.90;;;;;;5022950;28;20053;-79
2022/07/23 12:38:35;;;;;;;3.25;1.90;;;22.80;99.90;;;;;;5001502;28;20038;-78
2022/07/23 12:41:01;;;;;;;3.78;1.88;;;22.60;98.80;;;;;;5001349;28;20511;-79
2022/07/23 12:43:28;;;;;;;2.70;1.80;;;22.40;99.60;;;;;;5014063;28;20157;-79
2022/07/23 12:46:10;;;;;;;2.97;1.48;;;22.20;99.90;;;;;;5019823;28;20580;-79
2022/07/23 12:48:50;;;;;;;2.83;1.83;;;22.10;99.90;;;;;;5029949;28;20041;-78
2022/07/23 12:51:20;;;;;;;2.53;1.58;;;22.00;99.90;;;;;;4998461;28;20050;-78
2022/07/23 12:53:52;;;;;;;3.78;1.70;;;21.90;99.90;;;;;;5019539;28;20048;-78
2022/07/23 12:56:31;;;;;;;4.57;1.67;;;21.90;99.90;;;;;;4997336;28;20744;-78
2022/07/23 12:59:06;;;;;;;3.38;1.90;;;21.80;99.90;;;;;;5008050;28;20060;-79